Portada
METAR-TAF:

METAR-TAF

Aeroports :

Tinian, Illes Mariannes, Estats Units d'Amèrica

latitud: 14-59N, longitud: 145-37E, altitud: 82 m

Observació

L'informe es va fer fa 6 hores i 39 minuts, a les 05:55 UTC
Vent 10 kt del Est
Temperatura 32°C
Humitat 63%
Pressió 1012 hPa
Visibilitat: 11.3 km
Núvols disperses a una alçada de 1600 ft

METAR: PGWT 250555Z 09010KT 7SM SCT016 32/24 A2989 RMK LAST

Hora: 22:34 (12:34 UTC)

Pronòstic

L'informe es va fer fa 7 hores i 14 minuts, a les 05:20 UTC
Pronòstic vàlid del 25 a les 06 UTC al 26 a les 06 UTC
Vent 11 kt del Est
Visibilitat: 10 km
Núvols disperses a una alçada de 1800 ft

TAF: PGWT 250520Z 2506/2606 09011KT P6SM SCT018

Observacions i pronòstics meteorològics de més de 4000 aeroports (METAR i TAF).

Les estacions disponibles són els punts grocs i vermells al mapa.

Posi el ratolí al punt desitjat per veure el nom de l'estació.

Feu clic per veure les observacions i els pronòstics meteorològics.

Per canviar el mapa: feu clic els botons verds amb una creu de color negre per apropar; al botó verd amb un guió per allunyar la imatge; o en les fletxes verdes per a mapes adjacents.


METAR-TAF: